sensor_id;sensor_type;location;lat;lon;timestamp;P1;durP1;ratioP1;P2;durP2;ratioP2
29246;SDS011;16272;48.188;9.964;2022-07-29T00:02:13;12.40;;;6.13;;
29246;SDS011;16272;48.188;9.964;2022-07-29T00:04:38;10.80;;;5.90;;
29246;SDS011;16272;48.188;9.964;2022-07-29T00:07:03;11.23;;;6.50;;
29246;SDS011;16272;48.188;9.964;2022-07-29T00:09:30;11.35;;;6.50;;
29246;SDS011;16272;48.188;9.964;2022-07-29T00:11:57;14.95;;;7.13;;
29246;SDS011;16272;48.188;9.964;2022-07-29T00:14:24;11.27;;;6.85;;
29246;SDS011;16272;48.188;9.964;2022-07-29T00:16:49;11.23;;;5.83;;
29246;SDS011;16272;48.188;9.964;2022-07-29T00:19:17;12.30;;;6.33;;
29246;SDS011;16272;48.188;9.964;2022-07-29T00:21:42;11.50;;;6.85;;
29246;SDS011;16272;48.188;9.964;2022-07-29T00:24:08;14.37;;;7.03;;
29246;SDS011;16272;48.188;9.964;2022-07-29T00:26:33;13.23;;;6.83;;
29246;SDS011;16272;48.188;9.964;2022-07-29T00:29:05;17.53;;;7.30;;
29246;SDS011;16272;48.188;9.964;2022-07-29T00:31:30;13.35;;;8.15;;
29246;SDS011;16272;48.188;9.964;2022-07-29T00:33:55;12.57;;;6.63;;
29246;SDS011;16272;48.188;9.964;2022-07-29T00:36:21;12.37;;;6.23;;
29246;SDS011;16272;48.188;9.964;2022-07-29T00:38:50;12.43;;;6.73;;
29246;SDS011;16272;48.188;9.964;2022-07-29T00:41:16;11.50;;;6.60;;
29246;SDS011;16272;48.188;9.964;2022-07-29T00:43:42;11.65;;;6.75;;
29246;SDS011;16272;48.188;9.964;2022-07-29T00:46:08;12.40;;;7.10;;
29246;SDS011;16272;48.188;9.964;2022-07-29T00:48:34;11.95;;;7.32;;
29246;SDS011;16272;48.188;9.964;2022-07-29T00:50:59;12.80;;;7.67;;
29246;SDS011;16272;48.188;9.964;2022-07-29T00:53:27;13.52;;;6.93;;
29246;SDS011;16272;48.188;9.964;2022-07-29T00:55:56;13.00;;;7.13;;
29246;SDS011;16272;48.188;9.964;2022-07-29T00:58:23;13.23;;;6.35;;
29246;SDS011;16272;48.188;9.964;2022-07-29T01:03:43;11.50;;;6.03;;
29246;SDS011;16272;48.188;9.964;2022-07-29T01:06:09;10.53;;;5.70;;
29246;SDS011;16272;48.188;9.964;2022-07-29T01:08:34;12.80;;;5.70;;
29246;SDS011;16272;48.188;9.964;2022-07-29T01:11:00;10.63;;;5.60;;
29246;SDS011;16272;48.188;9.964;2022-07-29T01:13:27;12.85;;;6.38;;
29246;SDS011;16272;48.188;9.964;2022-07-29T01:15:54;10.57;;;5.97;;
29246;SDS011;16272;48.188;9.964;2022-07-29T01:18:30;11.80;;;5.67;;
29246;SDS011;16272;48.188;9.964;2022-07-29T01:32:04;12.03;;;5.23;;
29246;SDS011;16272;48.188;9.964;2022-07-29T01:37:10;10.38;;;4.95;;
29246;SDS011;16272;48.188;9.964;2022-07-29T01:39:43;12.43;;;4.80;;
29246;SDS011;16272;48.188;9.964;2022-07-29T01:47:56;12.25;;;4.97;;
29246;SDS011;16272;48.188;9.964;2022-07-29T01:50:35;10.70;;;4.80;;
29246;SDS011;16272;48.188;9.964;2022-07-29T01:53:06;11.45;;;4.72;;
29246;SDS011;16272;48.188;9.964;2022-07-29T01:55:35;10.88;;;4.97;;
29246;SDS011;16272;48.188;9.964;2022-07-29T01:58:04;11.27;;;4.73;;
29246;SDS011;16272;48.188;9.964;2022-07-29T02:03:02;9.88;;;4.40;;
29246;SDS011;16272;48.188;9.964;2022-07-29T02:05:32;11.57;;;4.43;;
29246;SDS011;16272;48.188;9.964;2022-07-29T02:08:00;11.63;;;4.85;;
29246;SDS011;16272;48.188;9.964;2022-07-29T02:10:34;10.93;;;4.70;;
29246;SDS011;16272;48.188;9.964;2022-07-29T02:13:02;12.30;;;5.10;;
29246;SDS011;16272;48.188;9.964;2022-07-29T02:15:30;10.95;;;4.38;;
29246;SDS011;16272;48.188;9.964;2022-07-29T02:18:01;10.20;;;4.53;;
29246;SDS011;16272;48.188;9.964;2022-07-29T02:20:33;13.07;;;5.10;;
29246;SDS011;16272;48.188;9.964;2022-07-29T02:22:59;11.70;;;4.70;;
29246;SDS011;16272;48.188;9.964;2022-07-29T02:25:27;14.52;;;5.20;;
29246;SDS011;16272;48.188;9.964;2022-07-29T02:27:53;10.18;;;4.70;;
29246;SDS011;16272;48.188;9.964;2022-07-29T02:30:21;10.88;;;4.43;;
29246;SDS011;16272;48.188;9.964;2022-07-29T02:32:48;14.90;;;4.27;;
29246;SDS011;16272;48.188;9.964;2022-07-29T02:35:16;9.82;;;4.40;;
29246;SDS011;16272;48.188;9.964;2022-07-29T02:37:43;10.30;;;4.95;;
29246;SDS011;16272;48.188;9.964;2022-07-29T02:40:11;15.02;;;4.82;;
29246;SDS011;16272;48.188;9.964;2022-07-29T02:42:41;10.13;;;5.05;;
29246;SDS011;16272;48.188;9.964;2022-07-29T02:45:09;11.73;;;5.50;;
29246;SDS011;16272;48.188;9.964;2022-07-29T02:47:36;10.50;;;4.88;;
29246;SDS011;16272;48.188;9.964;2022-07-29T02:50:15;12.40;;;5.30;;
29246;SDS011;16272;48.188;9.964;2022-07-29T02:52:46;14.50;;;5.03;;
29246;SDS011;16272;48.188;9.964;2022-07-29T02:58:27;10.87;;;4.97;;
29246;SDS011;16272;48.188;9.964;2022-07-29T03:00:56;12.77;;;4.57;;
29246;SDS011;16272;48.188;9.964;2022-07-29T03:03:24;11.00;;;4.75;;
29246;SDS011;16272;48.188;9.964;2022-07-29T03:05:56;13.05;;;5.18;;
29246;SDS011;16272;48.188;9.964;2022-07-29T03:08:24;11.13;;;5.25;;
29246;SDS011;16272;48.188;9.964;2022-07-29T03:10:51;13.17;;;5.97;;
29246;SDS011;16272;48.188;9.964;2022-07-29T03:13:18;11.43;;;5.45;;
29246;SDS011;16272;48.188;9.964;2022-07-29T03:15:44;11.00;;;4.63;;
29246;SDS011;16272;48.188;9.964;2022-07-29T03:18:10;10.15;;;4.53;;
29246;SDS011;16272;48.188;9.964;2022-07-29T03:20:37;11.07;;;4.60;;
29246;SDS011;16272;48.188;9.964;2022-07-29T03:23:03;18.20;;;5.53;;
29246;SDS011;16272;48.188;9.964;2022-07-29T03:25:29;10.63;;;5.13;;
29246;SDS011;16272;48.188;9.964;2022-07-29T03:27:58;13.43;;;5.10;;
29246;SDS011;16272;48.188;9.964;2022-07-29T03:30:24;34.90;;;6.20;;
29246;SDS011;16272;48.188;9.964;2022-07-29T03:32:50;14.65;;;4.38;;
29246;SDS011;16272;48.188;9.964;2022-07-29T03:35:15;10.60;;;4.20;;
29246;SDS011;16272;48.188;9.964;2022-07-29T03:37:44;9.98;;;3.88;;
29246;SDS011;16272;48.188;9.964;2022-07-29T03:40:11;8.43;;;3.70;;
29246;SDS011;16272;48.188;9.964;2022-07-29T03:42:49;14.10;;;4.35;;
29246;SDS011;16272;48.188;9.964;2022-07-29T03:45:18;13.18;;;4.20;;
29246;SDS011;16272;48.188;9.964;2022-07-29T03:47:50;8.63;;;3.63;;
29246;SDS011;16272;48.188;9.964;2022-07-29T03:50:18;9.02;;;3.50;;
29246;SDS011;16272;48.188;9.964;2022-07-29T03:52:46;8.15;;;3.45;;
29246;SDS011;16272;48.188;9.964;2022-07-29T03:55:13;10.80;;;3.72;;
29246;SDS011;16272;48.188;9.964;2022-07-29T03:57:48;8.90;;;3.70;;
29246;SDS011;16272;48.188;9.964;2022-07-29T04:00:14;8.37;;;3.60;;
29246;SDS011;16272;48.188;9.964;2022-07-29T04:02:40;12.82;;;4.00;;
29246;SDS011;16272;48.188;9.964;2022-07-29T04:05:13;11.75;;;3.72;;
29246;SDS011;16272;48.188;9.964;2022-07-29T04:07:43;10.65;;;4.10;;
29246;SDS011;16272;48.188;9.964;2022-07-29T04:10:09;10.45;;;4.28;;
29246;SDS011;16272;48.188;9.964;2022-07-29T04:12:35;18.20;;;4.23;;
29246;SDS011;16272;48.188;9.964;2022-07-29T04:15:05;11.30;;;3.73;;
29246;SDS011;16272;48.188;9.964;2022-07-29T04:17:31;11.63;;;3.38;;
29246;SDS011;16272;48.188;9.964;2022-07-29T04:19:56;9.80;;;3.30;;
29246;SDS011;16272;48.188;9.964;2022-07-29T04:22:22;9.87;;;3.00;;
29246;SDS011;16272;48.188;9.964;2022-07-29T04:24:47;9.73;;;3.37;;
29246;SDS011;16272;48.188;9.964;2022-07-29T04:27:12;10.83;;;3.93;;
29246;SDS011;16272;48.188;9.964;2022-07-29T04:29:38;11.43;;;3.30;;
29246;SDS011;16272;48.188;9.964;2022-07-29T04:32:03;9.10;;;2.93;;
29246;SDS011;16272;48.188;9.964;2022-07-29T04:34:28;9.75;;;3.00;;
29246;SDS011;16272;48.188;9.964;2022-07-29T04:36:54;9.13;;;3.20;;
29246;SDS011;16272;48.188;9.964;2022-07-29T04:39:20;11.75;;;3.33;;
29246;SDS011;16272;48.188;9.964;2022-07-29T04:41:45;8.97;;;3.73;;
29246;SDS011;16272;48.188;9.964;2022-07-29T04:44:12;9.25;;;3.40;;
29246;SDS011;16272;48.188;9.964;2022-07-29T04:46:37;10.53;;;3.47;;
29246;SDS011;16272;48.188;9.964;2022-07-29T04:49:03;11.85;;;3.30;;
29246;SDS011;16272;48.188;9.964;2022-07-29T04:51:29;11.97;;;4.00;;
29246;SDS011;16272;48.188;9.964;2022-07-29T04:53:54;9.70;;;3.50;;
29246;SDS011;16272;48.188;9.964;2022-07-29T04:56:19;9.43;;;3.77;;
29246;SDS011;16272;48.188;9.964;2022-07-29T04:58:45;8.73;;;3.67;;
29246;SDS011;16272;48.188;9.964;2022-07-29T05:01:10;9.13;;;3.43;;
29246;SDS011;16272;48.188;9.964;2022-07-29T05:03:36;8.73;;;3.60;;
29246;SDS011;16272;48.188;9.964;2022-07-29T05:06:01;8.53;;;3.50;;
29246;SDS011;16272;48.188;9.964;2022-07-29T05:08:28;12.45;;;3.50;;
29246;SDS011;16272;48.188;9.964;2022-07-29T05:10:54;9.00;;;3.20;;
29246;SDS011;16272;48.188;9.964;2022-07-29T05:13:30;10.37;;;3.80;;
29246;SDS011;16272;48.188;9.964;2022-07-29T05:15:55;9.20;;;3.28;;
29246;SDS011;16272;48.188;9.964;2022-07-29T05:18:23;7.85;;;3.58;;
29246;SDS011;16272;48.188;9.964;2022-07-29T05:20:48;7.15;;;3.33;;
29246;SDS011;16272;48.188;9.964;2022-07-29T05:23:14;8.60;;;3.30;;
29246;SDS011;16272;48.188;9.964;2022-07-29T05:25:39;10.10;;;3.50;;
29246;SDS011;16272;48.188;9.964;2022-07-29T05:28:04;8.30;;;3.60;;
29246;SDS011;16272;48.188;9.964;2022-07-29T05:30:30;12.13;;;3.47;;
29246;SDS011;16272;48.188;9.964;2022-07-29T05:32:55;8.37;;;3.20;;
29246;SDS011;16272;48.188;9.964;2022-07-29T05:35:29;9.33;;;3.10;;
29246;SDS011;16272;48.188;9.964;2022-07-29T05:37:55;8.23;;;3.17;;
29246;SDS011;16272;48.188;9.964;2022-07-29T05:40:20;8.60;;;3.33;;
29246;SDS011;16272;48.188;9.964;2022-07-29T05:42:46;8.82;;;3.60;;
29246;SDS011;16272;48.188;9.964;2022-07-29T05:45:11;8.47;;;3.57;;
29246;SDS011;16272;48.188;9.964;2022-07-29T05:47:36;7.17;;;3.00;;
29246;SDS011;16272;48.188;9.964;2022-07-29T05:50:02;10.07;;;3.17;;
29246;SDS011;16272;48.188;9.964;2022-07-29T05:52:29;6.70;;;3.22;;
29246;SDS011;16272;48.188;9.964;2022-07-29T05:54:54;6.70;;;2.90;;
29246;SDS011;16272;48.188;9.964;2022-07-29T05:57:20;7.60;;;2.93;;
29246;SDS011;16272;48.188;9.964;2022-07-29T05:59:47;9.60;;;3.03;;
29246;SDS011;16272;48.188;9.964;2022-07-29T06:02:13;8.50;;;3.20;;
29246;SDS011;16272;48.188;9.964;2022-07-29T06:04:38;8.47;;;2.47;;
29246;SDS011;16272;48.188;9.964;2022-07-29T06:07:04;7.10;;;2.85;;
29246;SDS011;16272;48.188;9.964;2022-07-29T06:09:29;7.77;;;2.70;;
29246;SDS011;16272;48.188;9.964;2022-07-29T06:11:55;7.37;;;2.53;;
29246;SDS011;16272;48.188;9.964;2022-07-29T06:14:20;7.20;;;3.00;;
29246;SDS011;16272;48.188;9.964;2022-07-29T06:16:45;6.67;;;2.57;;
29246;SDS011;16272;48.188;9.964;2022-07-29T06:19:11;7.25;;;2.67;;
29246;SDS011;16272;48.188;9.964;2022-07-29T06:21:47;7.97;;;2.80;;
29246;SDS011;16272;48.188;9.964;2022-07-29T06:24:13;6.60;;;2.55;;
29246;SDS011;16272;48.188;9.964;2022-07-29T06:26:41;6.38;;;2.50;;
29246;SDS011;16272;48.188;9.964;2022-07-29T06:29:07;7.73;;;2.70;;
29246;SDS011;16272;48.188;9.964;2022-07-29T06:31:33;7.35;;;2.60;;
29246;SDS011;16272;48.188;9.964;2022-07-29T06:33:58;7.88;;;2.80;;
29246;SDS011;16272;48.188;9.964;2022-07-29T06:36:24;7.10;;;2.80;;
29246;SDS011;16272;48.188;9.964;2022-07-29T06:38:49;6.77;;;2.50;;
29246;SDS011;16272;48.188;9.964;2022-07-29T06:41:15;8.27;;;3.00;;
29246;SDS011;16272;48.188;9.964;2022-07-29T06:43:41;8.25;;;2.65;;
29246;SDS011;16272;48.188;9.964;2022-07-29T06:46:10;7.97;;;3.08;;
29246;SDS011;16272;48.188;9.964;2022-07-29T06:48:48;7.60;;;2.93;;
29246;SDS011;16272;48.188;9.964;2022-07-29T06:51:14;8.93;;;3.13;;
29246;SDS011;16272;48.188;9.964;2022-07-29T06:53:39;7.45;;;3.28;;
29246;SDS011;16272;48.188;9.964;2022-07-29T06:56:06;7.33;;;3.07;;
29246;SDS011;16272;48.188;9.964;2022-07-29T06:58:34;8.10;;;3.15;;
29246;SDS011;16272;48.188;9.964;2022-07-29T07:03:31;9.85;;;3.10;;
29246;SDS011;16272;48.188;9.964;2022-07-29T07:05:56;9.40;;;3.13;;
29246;SDS011;16272;48.188;9.964;2022-07-29T07:08:29;7.68;;;2.97;;
29246;SDS011;16272;48.188;9.964;2022-07-29T07:10:54;7.90;;;2.63;;
29246;SDS011;16272;48.188;9.964;2022-07-29T07:13:23;7.13;;;2.60;;
29246;SDS011;16272;48.188;9.964;2022-07-29T07:15:49;8.25;;;3.05;;
29246;SDS011;16272;48.188;9.964;2022-07-29T07:18:22;7.78;;;2.63;;
29246;SDS011;16272;48.188;9.964;2022-07-29T07:20:47;6.78;;;2.65;;
29246;SDS011;16272;48.188;9.964;2022-07-29T07:23:13;7.77;;;3.27;;
29246;SDS011;16272;48.188;9.964;2022-07-29T07:25:38;7.67;;;2.97;;
29246;SDS011;16272;48.188;9.964;2022-07-29T07:28:03;7.73;;;3.00;;
29246;SDS011;16272;48.188;9.964;2022-07-29T07:30:29;7.68;;;3.22;;
29246;SDS011;16272;48.188;9.964;2022-07-29T07:32:54;9.13;;;3.47;;
29246;SDS011;16272;48.188;9.964;2022-07-29T07:35:20;6.47;;;2.47;;
29246;SDS011;16272;48.188;9.964;2022-07-29T07:37:50;8.07;;;3.00;;
29246;SDS011;16272;48.188;9.964;2022-07-29T07:40:15;6.70;;;2.45;;
29246;SDS011;16272;48.188;9.964;2022-07-29T07:42:40;7.90;;;2.37;;
29246;SDS011;16272;48.188;9.964;2022-07-29T07:45:15;6.40;;;2.70;;
29246;SDS011;16272;48.188;9.964;2022-07-29T07:47:40;7.67;;;2.80;;
29246;SDS011;16272;48.188;9.964;2022-07-29T07:50:07;6.72;;;2.35;;
29246;SDS011;16272;48.188;9.964;2022-07-29T07:52:34;6.97;;;2.30;;
29246;SDS011;16272;48.188;9.964;2022-07-29T07:54:59;6.23;;;2.47;;
29246;SDS011;16272;48.188;9.964;2022-07-29T07:57:26;6.28;;;2.47;;
29246;SDS011;16272;48.188;9.964;2022-07-29T07:59:51;7.00;;;2.40;;
29246;SDS011;16272;48.188;9.964;2022-07-29T08:02:16;5.80;;;2.40;;
29246;SDS011;16272;48.188;9.964;2022-07-29T08:04:41;7.30;;;2.37;;
29246;SDS011;16272;48.188;9.964;2022-07-29T08:07:07;7.17;;;2.23;;
29246;SDS011;16272;48.188;9.964;2022-07-29T08:09:34;6.43;;;2.47;;
29246;SDS011;16272;48.188;9.964;2022-07-29T08:12:00;6.30;;;2.70;;
29246;SDS011;16272;48.188;9.964;2022-07-29T08:14:28;7.72;;;2.40;;
29246;SDS011;16272;48.188;9.964;2022-07-29T08:16:54;7.20;;;2.40;;
29246;SDS011;16272;48.188;9.964;2022-07-29T08:19:19;7.47;;;2.40;;
29246;SDS011;16272;48.188;9.964;2022-07-29T08:21:45;7.60;;;2.63;;
29246;SDS011;16272;48.188;9.964;2022-07-29T08:24:10;6.80;;;2.33;;
29246;SDS011;16272;48.188;9.964;2022-07-29T08:26:54;6.27;;;2.37;;
29246;SDS011;16272;48.188;9.964;2022-07-29T08:29:19;7.40;;;2.25;;
29246;SDS011;16272;48.188;9.964;2022-07-29T08:31:44;6.60;;;2.30;;
29246;SDS011;16272;48.188;9.964;2022-07-29T08:34:10;7.50;;;2.70;;
29246;SDS011;16272;48.188;9.964;2022-07-29T08:36:37;7.72;;;3.00;;
29246;SDS011;16272;48.188;9.964;2022-07-29T08:39:03;7.25;;;2.55;;
29246;SDS011;16272;48.188;9.964;2022-07-29T08:41:29;6.53;;;2.65;;
29246;SDS011;16272;48.188;9.964;2022-07-29T08:43:54;7.17;;;2.67;;
29246;SDS011;16272;48.188;9.964;2022-07-29T08:46:20;6.93;;;2.30;;
29246;SDS011;16272;48.188;9.964;2022-07-29T08:48:46;6.60;;;2.80;;
29246;SDS011;16272;48.188;9.964;2022-07-29T08:51:13;6.70;;;2.75;;
29246;SDS011;16272;48.188;9.964;2022-07-29T08:53:40;7.97;;;3.03;;
29246;SDS011;16272;48.188;9.964;2022-07-29T08:56:06;7.93;;;2.57;;
29246;SDS011;16272;48.188;9.964;2022-07-29T08:58:32;6.53;;;2.60;;
29246;SDS011;16272;48.188;9.964;2022-07-29T09:00:59;6.70;;;2.80;;
29246;SDS011;16272;48.188;9.964;2022-07-29T09:03:29;6.35;;;2.60;;
29246;SDS011;16272;48.188;9.964;2022-07-29T09:05:56;6.10;;;2.45;;
29246;SDS011;16272;48.188;9.964;2022-07-29T09:08:23;6.70;;;2.53;;
29246;SDS011;16272;48.188;9.964;2022-07-29T09:10:49;6.43;;;2.57;;
29246;SDS011;16272;48.188;9.964;2022-07-29T09:13:15;6.88;;;2.38;;
29246;SDS011;16272;48.188;9.964;2022-07-29T09:15:41;7.17;;;3.07;;
29246;SDS011;16272;48.188;9.964;2022-07-29T09:18:06;7.83;;;3.30;;
29246;SDS011;16272;48.188;9.964;2022-07-29T09:20:31;7.63;;;3.03;;
29246;SDS011;16272;48.188;9.964;2022-07-29T09:23:15;8.80;;;3.20;;
29246;SDS011;16272;48.188;9.964;2022-07-29T09:25:41;7.63;;;3.10;;
29246;SDS011;16272;48.188;9.964;2022-07-29T09:28:10;6.82;;;2.80;;
29246;SDS011;16272;48.188;9.964;2022-07-29T09:30:53;10.50;;;3.28;;
29246;SDS011;16272;48.188;9.964;2022-07-29T09:33:22;8.18;;;2.90;;
29246;SDS011;16272;48.188;9.964;2022-07-29T09:36:02;7.03;;;3.10;;
29246;SDS011;16272;48.188;9.964;2022-07-29T09:38:36;8.43;;;2.90;;
29246;SDS011;16272;48.188;9.964;2022-07-29T09:41:02;6.60;;;2.75;;
29246;SDS011;16272;48.188;9.964;2022-07-29T09:43:29;7.00;;;2.80;;
29246;SDS011;16272;48.188;9.964;2022-07-29T09:45:54;6.87;;;3.03;;
29246;SDS011;16272;48.188;9.964;2022-07-29T09:48:24;6.97;;;3.05;;
29246;SDS011;16272;48.188;9.964;2022-07-29T09:50:50;7.07;;;2.80;;
29246;SDS011;16272;48.188;9.964;2022-07-29T09:53:34;7.10;;;3.10;;
29246;SDS011;16272;48.188;9.964;2022-07-29T09:56:02;7.35;;;2.70;;
29246;SDS011;16272;48.188;9.964;2022-07-29T09:58:28;6.72;;;3.15;;
29246;SDS011;16272;48.188;9.964;2022-07-29T10:00:54;7.90;;;3.10;;
29246;SDS011;16272;48.188;9.964;2022-07-29T10:03:21;6.88;;;3.22;;
29246;SDS011;16272;48.188;9.964;2022-07-29T10:06:06;7.30;;;3.33;;
29246;SDS011;16272;48.188;9.964;2022-07-29T10:08:36;8.73;;;3.40;;
29246;SDS011;16272;48.188;9.964;2022-07-29T10:11:12;7.63;;;3.57;;
29246;SDS011;16272;48.188;9.964;2022-07-29T10:13:38;7.30;;;3.55;;
29246;SDS011;16272;48.188;9.964;2022-07-29T10:16:05;7.28;;;3.42;;
29246;SDS011;16272;48.188;9.964;2022-07-29T10:18:31;7.65;;;3.28;;
29246;SDS011;16272;48.188;9.964;2022-07-29T10:20:57;7.47;;;3.67;;
29246;SDS011;16272;48.188;9.964;2022-07-29T10:23:23;8.03;;;3.70;;
29246;SDS011;16272;48.188;9.964;2022-07-29T10:25:58;7.00;;;3.15;;
29246;SDS011;16272;48.188;9.964;2022-07-29T10:28:23;7.13;;;2.90;;
29246;SDS011;16272;48.188;9.964;2022-07-29T10:30:50;8.77;;;2.90;;
29246;SDS011;16272;48.188;9.964;2022-07-29T10:33:28;7.75;;;3.33;;
29246;SDS011;16272;48.188;9.964;2022-07-29T10:44:24;6.75;;;3.30;;
29246;SDS011;16272;48.188;9.964;2022-07-29T10:46:52;10.88;;;3.45;;
29246;SDS011;16272;48.188;9.964;2022-07-29T10:49:25;7.85;;;3.40;;
29246;SDS011;16272;48.188;9.964;2022-07-29T10:52:01;6.72;;;3.10;;
29246;SDS011;16272;48.188;9.964;2022-07-29T10:57:30;6.68;;;3.03;;
29246;SDS011;16272;48.188;9.964;2022-07-29T11:05:07;8.27;;;2.97;;
29246;SDS011;16272;48.188;9.964;2022-07-29T11:08:16;6.87;;;3.10;;
29246;SDS011;16272;48.188;9.964;2022-07-29T11:10:42;9.25;;;3.20;;
29246;SDS011;16272;48.188;9.964;2022-07-29T11:13:07;7.47;;;3.25;;
29246;SDS011;16272;48.188;9.964;2022-07-29T11:15:52;6.73;;;3.20;;
29246;SDS011;16272;48.188;9.964;2022-07-29T11:21:35;6.80;;;3.00;;
29246;SDS011;16272;48.188;9.964;2022-07-29T11:27:09;6.90;;;3.30;;
29246;SDS011;16272;48.188;9.964;2022-07-29T11:29:40;6.50;;;2.78;;
29246;SDS011;16272;48.188;9.964;2022-07-29T11:32:21;8.05;;;3.28;;
29246;SDS011;16272;48.188;9.964;2022-07-29T11:37:39;7.28;;;3.25;;
29246;SDS011;16272;48.188;9.964;2022-07-29T11:44:56;7.20;;;3.17;;
29246;SDS011;16272;48.188;9.964;2022-07-29T11:47:23;7.70;;;3.40;;
29246;SDS011;16272;48.188;9.964;2022-07-29T11:49:49;7.63;;;3.65;;
29246;SDS011;16272;48.188;9.964;2022-07-29T11:52:16;7.47;;;3.63;;
29246;SDS011;16272;48.188;9.964;2022-07-29T11:54:42;7.80;;;3.50;;
29246;SDS011;16272;48.188;9.964;2022-07-29T11:57:08;7.20;;;3.10;;
29246;SDS011;16272;48.188;9.964;2022-07-29T11:59:40;7.55;;;3.30;;
29246;SDS011;16272;48.188;9.964;2022-07-29T12:02:09;7.53;;;3.33;;
29246;SDS011;16272;48.188;9.964;2022-07-29T12:04:52;7.45;;;3.35;;
29246;SDS011;16272;48.188;9.964;2022-07-29T12:07:25;7.88;;;3.33;;
29246;SDS011;16272;48.188;9.964;2022-07-29T12:09:55;10.97;;;3.53;;
29246;SDS011;16272;48.188;9.964;2022-07-29T12:12:20;6.85;;;3.22;;
29246;SDS011;16272;48.188;9.964;2022-07-29T12:14:46;7.17;;;3.20;;
29246;SDS011;16272;48.188;9.964;2022-07-29T12:17:29;7.28;;;3.28;;
29246;SDS011;16272;48.188;9.964;2022-07-29T12:20:01;7.88;;;2.97;;
29246;SDS011;16272;48.188;9.964;2022-07-29T12:22:29;8.85;;;3.83;;
29246;SDS011;16272;48.188;9.964;2022-07-29T12:25:00;8.70;;;3.07;;
29246;SDS011;16272;48.188;9.964;2022-07-29T12:27:27;7.53;;;3.55;;
29246;SDS011;16272;48.188;9.964;2022-07-29T12:30:00;6.65;;;3.10;;
29246;SDS011;16272;48.188;9.964;2022-07-29T12:32:31;7.57;;;3.37;;
29246;SDS011;16272;48.188;9.964;2022-07-29T12:34:58;8.80;;;3.75;;
29246;SDS011;16272;48.188;9.964;2022-07-29T12:37:24;7.85;;;3.60;;
29246;SDS011;16272;48.188;9.964;2022-07-29T12:39:50;7.03;;;3.40;;
29246;SDS011;16272;48.188;9.964;2022-07-29T12:42:15;7.50;;;3.35;;
29246;SDS011;16272;48.188;9.964;2022-07-29T12:44:46;10.07;;;4.00;;
29246;SDS011;16272;48.188;9.964;2022-07-29T12:47:12;7.80;;;3.85;;
29246;SDS011;16272;48.188;9.964;2022-07-29T12:49:41;8.00;;;3.80;;
29246;SDS011;16272;48.188;9.964;2022-07-29T12:54:58;6.93;;;3.55;;
29246;SDS011;16272;48.188;9.964;2022-07-29T12:57:30;8.47;;;3.30;;
29246;SDS011;16272;48.188;9.964;2022-07-29T13:00:04;8.30;;;3.45;;
29246;SDS011;16272;48.188;9.964;2022-07-29T13:02:39;7.22;;;3.30;;
29246;SDS011;16272;48.188;9.964;2022-07-29T13:05:07;6.95;;;3.50;;
29246;SDS011;16272;48.188;9.964;2022-07-29T13:07:42;6.93;;;3.50;;
29246;SDS011;16272;48.188;9.964;2022-07-29T13:10:11;7.45;;;3.15;;
29246;SDS011;16272;48.188;9.964;2022-07-29T13:12:37;6.97;;;3.17;;
29246;SDS011;16272;48.188;9.964;2022-07-29T13:15:13;6.75;;;3.50;;
29246;SDS011;16272;48.188;9.964;2022-07-29T13:20:25;6.70;;;3.20;;
29246;SDS011;16272;48.188;9.964;2022-07-29T13:22:57;6.65;;;3.40;;
29246;SDS011;16272;48.188;9.964;2022-07-29T13:25:24;8.68;;;3.55;;
29246;SDS011;16272;48.188;9.964;2022-07-29T13:27:54;6.65;;;3.40;;
29246;SDS011;16272;48.188;9.964;2022-07-29T13:30:20;7.95;;;3.10;;
29246;SDS011;16272;48.188;9.964;2022-07-29T13:32:46;7.50;;;3.00;;
29246;SDS011;16272;48.188;9.964;2022-07-29T13:35:12;6.47;;;3.13;;
29246;SDS011;16272;48.188;9.964;2022-07-29T13:37:38;6.53;;;2.95;;
29246;SDS011;16272;48.188;9.964;2022-07-29T13:40:04;7.03;;;3.10;;
29246;SDS011;16272;48.188;9.964;2022-07-29T13:42:33;8.27;;;3.05;;
29246;SDS011;16272;48.188;9.964;2022-07-29T13:44:59;6.95;;;2.83;;
29246;SDS011;16272;48.188;9.964;2022-07-29T13:47:25;7.00;;;2.95;;
29246;SDS011;16272;48.188;9.964;2022-07-29T13:49:51;7.10;;;3.00;;
29246;SDS011;16272;48.188;9.964;2022-07-29T13:52:18;7.00;;;2.97;;
29246;SDS011;16272;48.188;9.964;2022-07-29T13:54:44;9.00;;;3.42;;
29246;SDS011;16272;48.188;9.964;2022-07-29T13:57:14;7.40;;;2.97;;
29246;SDS011;16272;48.188;9.964;2022-07-29T13:59:42;7.60;;;2.92;;
29246;SDS011;16272;48.188;9.964;2022-07-29T14:02:08;7.10;;;3.38;;
29246;SDS011;16272;48.188;9.964;2022-07-29T14:04:35;7.50;;;2.87;;
29246;SDS011;16272;48.188;9.964;2022-07-29T14:07:00;6.50;;;3.25;;
29246;SDS011;16272;48.188;9.964;2022-07-29T14:09:26;8.70;;;2.83;;
29246;SDS011;16272;48.188;9.964;2022-07-29T14:11:52;6.78;;;3.08;;
29246;SDS011;16272;48.188;9.964;2022-07-29T14:14:18;7.77;;;3.40;;
29246;SDS011;16272;48.188;9.964;2022-07-29T14:16:44;9.48;;;3.13;;
29246;SDS011;16272;48.188;9.964;2022-07-29T14:19:09;5.77;;;1.90;;
29246;SDS011;16272;48.188;9.964;2022-07-29T14:21:36;7.93;;;2.40;;
29246;SDS011;16272;48.188;9.964;2022-07-29T14:24:02;7.45;;;2.53;;
29246;SDS011;16272;48.188;9.964;2022-07-29T14:26:27;6.87;;;2.40;;
29246;SDS011;16272;48.188;9.964;2022-07-29T14:28:52;6.20;;;2.03;;
29246;SDS011;16272;48.188;9.964;2022-07-29T14:31:18;7.00;;;2.10;;
29246;SDS011;16272;48.188;9.964;2022-07-29T14:33:43;5.50;;;2.08;;
29246;SDS011;16272;48.188;9.964;2022-07-29T14:36:08;7.03;;;2.60;;
29246;SDS011;16272;48.188;9.964;2022-07-29T14:38:34;5.80;;;2.30;;
29246;SDS011;16272;48.188;9.964;2022-07-29T14:41:00;6.55;;;2.95;;
29246;SDS011;16272;48.188;9.964;2022-07-29T14:43:25;6.83;;;2.60;;
29246;SDS011;16272;48.188;9.964;2022-07-29T14:45:51;7.13;;;2.60;;
29246;SDS011;16272;48.188;9.964;2022-07-29T14:48:16;7.57;;;2.83;;
29246;SDS011;16272;48.188;9.964;2022-07-29T14:50:41;5.67;;;2.43;;
29246;SDS011;16272;48.188;9.964;2022-07-29T14:53:07;7.00;;;2.80;;
29246;SDS011;16272;48.188;9.964;2022-07-29T14:55:32;5.90;;;2.30;;
29246;SDS011;16272;48.188;9.964;2022-07-29T14:57:57;8.37;;;2.90;;
29246;SDS011;16272;48.188;9.964;2022-07-29T15:00:24;8.38;;;2.80;;
29246;SDS011;16272;48.188;9.964;2022-07-29T15:02:50;7.72;;;3.63;;
29246;SDS011;16272;48.188;9.964;2022-07-29T15:05:15;7.63;;;3.97;;
29246;SDS011;16272;48.188;9.964;2022-07-29T15:07:41;8.40;;;2.73;;
29246;SDS011;16272;48.188;9.964;2022-07-29T15:10:06;7.87;;;3.30;;
29246;SDS011;16272;48.188;9.964;2022-07-29T15:12:32;9.33;;;3.40;;
29246;SDS011;16272;48.188;9.964;2022-07-29T15:14:58;15.27;;;3.73;;
29246;SDS011;16272;48.188;9.964;2022-07-29T15:17:24;9.90;;;4.00;;
29246;SDS011;16272;48.188;9.964;2022-07-29T15:19:49;9.95;;;3.78;;
29246;SDS011;16272;48.188;9.964;2022-07-29T15:22:15;9.60;;;3.90;;
29246;SDS011;16272;48.188;9.964;2022-07-29T15:24:40;8.90;;;3.90;;
29246;SDS011;16272;48.188;9.964;2022-07-29T15:27:06;8.77;;;3.90;;
29246;SDS011;16272;48.188;9.964;2022-07-29T15:29:31;9.93;;;3.93;;
29246;SDS011;16272;48.188;9.964;2022-07-29T15:31:57;8.53;;;3.60;;
29246;SDS011;16272;48.188;9.964;2022-07-29T15:34:22;9.50;;;3.80;;
29246;SDS011;16272;48.188;9.964;2022-07-29T15:36:50;10.25;;;3.92;;
29246;SDS011;16272;48.188;9.964;2022-07-29T15:39:21;9.57;;;3.88;;
29246;SDS011;16272;48.188;9.964;2022-07-29T15:41:47;9.53;;;3.83;;
29246;SDS011;16272;48.188;9.964;2022-07-29T15:44:13;11.90;;;3.90;;
29246;SDS011;16272;48.188;9.964;2022-07-29T15:46:39;10.20;;;4.13;;
29246;SDS011;16272;48.188;9.964;2022-07-29T15:49:25;9.27;;;3.90;;
29246;SDS011;16272;48.188;9.964;2022-07-29T15:51:55;9.02;;;4.15;;
29246;SDS011;16272;48.188;9.964;2022-07-29T15:54:24;8.05;;;3.40;;